createdAt,value
2018-09-25T00:00:05.870Z,9.01
2018-09-25T00:02:52.341Z,9.00
2018-09-25T00:05:38.900Z,9.00
2018-09-25T00:08:25.356Z,9.00
2018-09-25T00:11:12.085Z,9.01
2018-09-25T00:13:58.925Z,9.01
2018-09-25T00:16:45.672Z,8.95
2018-09-25T00:19:32.240Z,8.92
2018-09-25T00:22:18.918Z,8.88
2018-09-25T00:25:05.501Z,8.82
2018-09-25T00:27:52.338Z,8.81
2018-09-25T00:30:38.885Z,8.81
2018-09-25T00:33:25.669Z,8.77
2018-09-25T00:36:12.682Z,8.72
2018-09-25T00:38:59.435Z,8.74
2018-09-25T00:41:46.214Z,8.77
2018-09-25T00:44:33.230Z,8.81
2018-09-25T00:47:19.873Z,8.84
2018-09-25T00:50:06.225Z,8.85
2018-09-25T00:52:52.645Z,8.83
2018-09-25T00:55:39.172Z,8.84
2018-09-25T00:58:25.899Z,8.82
2018-09-25T01:01:12.707Z,8.80
2018-09-25T01:03:59.167Z,8.79
2018-09-25T01:06:45.481Z,8.73
2018-09-25T01:09:32.136Z,8.71
2018-09-25T01:12:18.720Z,8.68
2018-09-25T01:15:05.312Z,8.63
2018-09-25T01:17:52.280Z,8.66
2018-09-25T01:20:39.112Z,8.71
2018-09-25T01:23:25.533Z,8.72
2018-09-25T01:26:12.252Z,8.77
2018-09-25T01:28:58.813Z,8.96
2018-09-25T01:31:45.140Z,8.68
2018-09-25T01:34:32.146Z,8.61
2018-09-25T01:37:18.632Z,8.49
2018-09-25T01:40:05.172Z,8.45
2018-09-25T01:42:51.935Z,8.24
2018-09-25T01:45:38.639Z,8.12
2018-09-25T01:48:25.548Z,8.09
2018-09-25T01:51:12.349Z,7.96
2018-09-25T01:53:59.161Z,7.96
2018-09-25T01:56:45.657Z,7.96
2018-09-25T01:59:32.262Z,7.85
2018-09-25T02:02:19.302Z,7.84
2018-09-25T02:05:06.060Z,7.75
2018-09-25T02:07:52.732Z,7.71
2018-09-25T02:10:39.234Z,7.67
2018-09-25T02:13:25.755Z,7.65
2018-09-25T02:16:12.448Z,7.61
2018-09-25T02:18:59.169Z,7.60
2018-09-25T02:21:45.952Z,7.53
2018-09-25T02:24:32.312Z,7.51
2018-09-25T02:27:19.367Z,7.44
2018-09-25T02:30:06.058Z,7.82
2018-09-25T02:32:52.553Z,7.58
2018-09-25T02:35:39.528Z,7.59
2018-09-25T02:38:26.065Z,7.55
2018-09-25T02:41:12.495Z,7.60
2018-09-25T02:43:59.176Z,7.62
2018-09-25T02:46:45.860Z,7.69
2018-09-25T02:49:32.620Z,7.60
2018-09-25T02:52:19.266Z,7.43
2018-09-25T02:55:05.562Z,7.32
2018-09-25T02:57:52.211Z,7.31
2018-09-25T03:00:38.816Z,7.33
2018-09-25T03:03:25.543Z,7.23
2018-09-25T03:06:11.847Z,7.04
2018-09-25T03:08:58.607Z,7.00
2018-09-25T03:11:45.542Z,6.99
2018-09-25T03:14:31.797Z,6.96
2018-09-25T03:17:18.500Z,7.26
2018-09-25T03:20:05.065Z,6.99
2018-09-25T03:22:51.596Z,6.92
2018-09-25T03:25:38.276Z,6.91
2018-09-25T03:28:25.214Z,6.86
2018-09-25T03:31:11.792Z,7.18
2018-09-25T03:33:58.367Z,6.91
2018-09-25T03:36:45.280Z,6.87
2018-09-25T03:39:31.494Z,6.77
2018-09-25T03:42:17.790Z,6.73
2018-09-25T03:45:04.160Z,6.69
2018-09-25T03:47:50.707Z,6.62
2018-09-25T03:50:37.035Z,6.63
2018-09-25T03:53:23.431Z,6.65
2018-09-25T03:56:09.920Z,6.60
2018-09-25T03:58:56.233Z,6.48
2018-09-25T04:01:42.460Z,6.40
2018-09-25T04:04:29.044Z,6.43
2018-09-25T04:07:15.412Z,6.39
2018-09-25T04:10:02.283Z,6.29
2018-09-25T04:12:48.545Z,6.18
2018-09-25T04:15:35.363Z,6.16
2018-09-25T04:18:22.044Z,6.18
2018-09-25T04:21:08.875Z,6.18
2018-09-25T04:23:55.394Z,6.14
2018-09-25T04:26:41.947Z,6.12
2018-09-25T04:29:28.219Z,6.11
2018-09-25T04:32:14.837Z,6.13
2018-09-25T04:35:01.542Z,6.14
2018-09-25T04:37:47.956Z,6.08
2018-09-25T04:40:34.322Z,6.07
2018-09-25T04:43:20.904Z,6.07
2018-09-25T04:46:07.201Z,6.03
2018-09-25T04:48:54.045Z,5.99
2018-09-25T04:51:40.939Z,6.13
2018-09-25T04:54:27.450Z,6.12
2018-09-25T04:57:14.218Z,6.12
2018-09-25T05:00:00.828Z,6.08
2018-09-25T05:02:47.670Z,6.08
2018-09-25T05:05:34.346Z,6.09
2018-09-25T05:08:20.789Z,6.02
2018-09-25T05:11:07.251Z,6.05
2018-09-25T05:13:53.663Z,6.01
2018-09-25T05:16:40.395Z,5.92
2018-09-25T05:19:27.064Z,5.87
2018-09-25T05:22:13.777Z,5.93
2018-09-25T05:25:00.108Z,5.93
2018-09-25T05:27:46.528Z,5.87
2018-09-25T05:30:33.271Z,5.80
2018-09-25T05:33:19.764Z,5.75
2018-09-25T05:36:06.389Z,5.70
2018-09-25T05:38:52.912Z,5.63
2018-09-25T05:41:39.281Z,5.58
2018-09-25T05:44:26.037Z,5.52
2018-09-25T05:47:12.570Z,5.55
2018-09-25T05:49:59.300Z,5.56
2018-09-25T05:52:45.851Z,5.62
2018-09-25T05:55:32.678Z,5.65
2018-09-25T05:58:19.423Z,5.64
2018-09-25T06:01:06.271Z,5.66
2018-09-25T06:03:52.869Z,5.72
2018-09-25T06:06:39.577Z,5.75
2018-09-25T06:09:26.781Z,5.76
2018-09-25T06:12:13.251Z,5.82
2018-09-25T06:15:00.066Z,5.90
2018-09-25T06:17:46.865Z,5.92
2018-09-25T06:20:33.398Z,5.87
2018-09-25T06:23:20.207Z,5.94
2018-09-25T06:26:06.944Z,5.91
2018-09-25T06:28:53.592Z,5.98
2018-09-25T06:31:40.411Z,6.03
2018-09-25T06:34:26.888Z,6.09
2018-09-25T06:37:13.737Z,6.19
2018-09-25T06:40:00.532Z,6.27
2018-09-25T06:42:46.884Z,6.33
2018-09-25T06:45:33.817Z,6.40
2018-09-25T06:48:20.630Z,6.47
2018-09-25T06:51:07.360Z,6.92
2018-09-25T06:53:54.039Z,6.83
2018-09-25T06:56:40.591Z,6.88
2018-09-25T06:59:26.853Z,6.96
2018-09-25T07:02:13.734Z,7.10
2018-09-25T07:05:00.376Z,7.18
2018-09-25T07:07:47.045Z,7.30
2018-09-25T07:10:34.010Z,7.44
2018-09-25T07:13:20.425Z,7.55
2018-09-25T07:16:06.979Z,7.71
2018-09-25T07:18:53.689Z,7.87
2018-09-25T07:21:40.211Z,7.99
2018-09-25T07:24:26.498Z,8.13
2018-09-25T07:27:13.014Z,8.61
2018-09-25T07:29:59.321Z,8.96
2018-09-25T07:32:45.833Z,9.05
2018-09-25T07:35:32.559Z,9.13
2018-09-25T07:38:19.140Z,9.20
2018-09-25T07:41:05.918Z,9.29
2018-09-25T07:43:52.409Z,9.38
2018-09-25T07:46:39.118Z,9.49
2018-09-25T07:49:25.837Z,9.61
2018-09-25T07:52:12.579Z,9.74
2018-09-25T07:54:59.184Z,9.85
2018-09-25T07:57:45.621Z,10.00
2018-09-25T08:00:32.388Z,10.29
2018-09-25T08:03:19.091Z,10.95
2018-09-25T08:06:05.501Z,11.86
2018-09-25T08:08:52.378Z,12.15
2018-09-25T08:11:38.950Z,12.07
2018-09-25T08:14:25.463Z,12.05
2018-09-25T08:17:12.393Z,12.29
2018-09-25T08:19:59.026Z,12.43
2018-09-25T08:22:45.529Z,12.38
2018-09-25T08:25:32.147Z,12.62
2018-09-25T08:28:18.681Z,13.29
2018-09-25T08:31:05.323Z,13.51
2018-09-25T08:33:51.897Z,13.92
2018-09-25T08:36:38.130Z,13.82
2018-09-25T08:39:27.154Z,13.59
2018-09-25T08:42:13.480Z,13.32
2018-09-25T08:45:00.007Z,13.21
2018-09-25T08:47:46.768Z,13.16
2018-09-25T08:50:33.430Z,13.09
2018-09-25T08:53:19.746Z,13.04
2018-09-25T08:56:06.516Z,13.11
2018-09-25T08:58:52.981Z,13.34
2018-09-25T09:01:39.336Z,13.69
2018-09-25T09:04:25.953Z,13.83
2018-09-25T09:07:12.695Z,14.85
2018-09-25T09:09:59.284Z,15.30
2018-09-25T09:12:45.701Z,15.46
2018-09-25T09:15:32.457Z,15.94
2018-09-25T09:18:19.322Z,15.90
2018-09-25T09:21:05.606Z,16.80
2018-09-25T09:23:52.142Z,17.87
2018-09-25T09:26:38.549Z,19.35
2018-09-25T09:29:25.285Z,21.68
2018-09-25T09:32:11.635Z,23.47
2018-09-25T09:34:58.336Z,24.82
2018-09-25T09:37:44.924Z,25.97
2018-09-25T09:40:31.454Z,24.71
2018-09-25T09:43:18.424Z,22.02
2018-09-25T09:46:05.003Z,20.23
2018-09-25T09:48:51.774Z,19.28
2018-09-25T09:51:38.289Z,18.44
2018-09-25T09:54:24.664Z,17.58
2018-09-25T09:57:11.396Z,16.96
2018-09-25T09:59:58.020Z,16.48
2018-09-25T10:02:44.425Z,16.11
2018-09-25T10:05:30.761Z,15.86
2018-09-25T10:08:17.296Z,15.66
2018-09-25T10:11:03.913Z,15.40
2018-09-25T10:13:50.337Z,15.30
2018-09-25T10:16:37.041Z,17.66
2018-09-25T10:19:23.562Z,20.19
2018-09-25T10:22:10.222Z,21.70
2018-09-25T10:24:56.698Z,22.97
2018-09-25T10:27:43.313Z,24.05
2018-09-25T10:30:29.591Z,24.80
2018-09-25T10:33:15.927Z,25.75
2018-09-25T10:36:02.418Z,26.58
2018-09-25T10:38:48.764Z,27.30
2018-09-25T10:41:35.276Z,27.22
2018-09-25T10:44:21.982Z,27.35
2018-09-25T10:47:08.389Z,27.82
2018-09-25T10:49:54.968Z,28.45
2018-09-25T10:52:41.591Z,27.77
2018-09-25T10:55:27.872Z,28.11
2018-09-25T10:58:14.724Z,27.76
2018-09-25T11:01:01.187Z,27.83
2018-09-25T11:03:47.793Z,28.42
2018-09-25T11:06:34.595Z,28.65
2018-09-25T11:09:21.107Z,28.30
2018-09-25T11:12:07.700Z,27.79
2018-09-25T11:14:54.204Z,27.82
2018-09-25T11:17:41.016Z,28.24
2018-09-25T11:20:27.476Z,27.49
2018-09-25T11:23:13.821Z,26.29
2018-09-25T11:26:00.272Z,25.37
2018-09-25T11:28:46.872Z,25.38
2018-09-25T11:31:33.385Z,25.09
2018-09-25T11:34:20.364Z,24.45
2018-09-25T11:37:07.092Z,25.02
2018-09-25T11:39:53.831Z,24.05
2018-09-25T11:42:40.585Z,23.06
2018-09-25T11:45:27.159Z,22.80
2018-09-25T11:48:13.773Z,22.50
2018-09-25T11:51:00.500Z,22.73
2018-09-25T11:53:47.043Z,22.48
2018-09-25T11:56:33.751Z,22.33
2018-09-25T11:59:20.301Z,22.29
2018-09-25T12:02:07.004Z,21.95
2018-09-25T12:04:53.341Z,21.21
2018-09-25T12:07:40.326Z,20.59
2018-09-25T12:10:26.760Z,20.11
2018-09-25T12:13:13.265Z,20.26
2018-09-25T12:16:00.028Z,19.67
2018-09-25T12:18:46.774Z,19.41
2018-09-25T12:21:33.300Z,18.95
2018-09-25T12:24:19.757Z,18.84
2018-09-25T12:27:06.460Z,18.68
2018-09-25T12:29:52.747Z,18.51
2018-09-25T12:32:39.541Z,18.38
2018-09-25T12:35:26.274Z,18.33
2018-09-25T12:38:12.768Z,18.17
2018-09-25T12:40:59.375Z,18.02
2018-09-25T12:43:45.897Z,17.95
2018-09-25T12:46:32.560Z,17.82
2018-09-25T12:49:19.088Z,17.93
2018-09-25T12:52:05.435Z,17.68
2018-09-25T12:54:52.244Z,17.72
2018-09-25T12:57:38.600Z,17.64
2018-09-25T13:00:25.264Z,17.62
2018-09-25T13:03:11.668Z,17.62
2018-09-25T13:05:58.042Z,17.68
2018-09-25T13:08:44.473Z,17.69
2018-09-25T13:11:30.728Z,17.63
2018-09-25T13:14:17.277Z,17.66
2018-09-25T13:17:03.594Z,17.74
2018-09-25T13:19:50.302Z,17.77
2018-09-25T13:22:36.715Z,17.62
2018-09-25T13:25:23.336Z,17.57
2018-09-25T13:28:09.685Z,17.47
2018-09-25T13:30:56.594Z,17.44
2018-09-25T13:33:43.345Z,17.41
2018-09-25T13:36:29.835Z,17.29
2018-09-25T13:39:16.262Z,17.36
2018-09-25T13:42:03.209Z,17.35
2018-09-25T13:44:49.768Z,17.25
2018-09-25T13:47:36.346Z,17.22
2018-09-25T13:50:23.103Z,17.16
2018-09-25T13:53:09.571Z,17.17
2018-09-25T13:55:56.258Z,17.21
2018-09-25T13:58:43.198Z,17.20
2018-09-25T14:01:29.966Z,17.23
2018-09-25T14:04:16.706Z,17.20
2018-09-25T14:07:03.565Z,17.22
2018-09-25T14:09:50.458Z,17.25
2018-09-25T14:12:37.317Z,17.25
2018-09-25T14:15:23.793Z,17.21
2018-09-25T14:18:10.054Z,17.26
2018-09-25T14:20:56.839Z,17.21
2018-09-25T14:23:43.393Z,17.21
2018-09-25T14:26:29.872Z,17.13
2018-09-25T14:29:16.458Z,17.17
2018-09-25T14:32:03.117Z,17.24
2018-09-25T14:34:49.591Z,17.35
2018-09-25T14:37:36.541Z,17.56
2018-09-25T14:40:23.739Z,17.80
2018-09-25T14:43:10.401Z,17.97
2018-09-25T14:45:56.907Z,18.07
2018-09-25T14:48:43.403Z,18.16
2018-09-25T14:51:30.322Z,18.16
2018-09-25T14:54:17.143Z,18.20
2018-09-25T14:57:03.636Z,18.21
2018-09-25T14:59:50.078Z,18.27
2018-09-25T15:02:36.513Z,18.33
2018-09-25T15:05:22.813Z,18.38
2018-09-25T15:08:09.301Z,18.35
2018-09-25T15:10:56.153Z,18.32
2018-09-25T15:13:42.686Z,18.25
2018-09-25T15:16:29.614Z,18.11
2018-09-25T15:19:16.146Z,17.86
2018-09-25T15:22:02.818Z,17.58
2018-09-25T15:24:49.016Z,17.57
2018-09-25T15:27:35.829Z,17.54
2018-09-25T15:30:22.415Z,17.62
2018-09-25T15:33:09.311Z,17.63
2018-09-25T15:35:55.740Z,17.66
2018-09-25T15:38:42.465Z,17.73
2018-09-25T15:41:29.312Z,17.77
2018-09-25T15:44:15.909Z,17.53
2018-09-25T15:47:02.807Z,17.27
2018-09-25T15:49:49.439Z,17.17
2018-09-25T15:52:36.191Z,17.08
2018-09-25T15:55:22.489Z,16.91
2018-09-25T15:58:08.886Z,16.86
2018-09-25T16:00:55.344Z,16.83
2018-09-25T16:03:42.217Z,16.83
2018-09-25T16:06:29.001Z,16.80
2018-09-25T16:09:16.132Z,16.68
2018-09-25T16:12:02.807Z,16.68
2018-09-25T16:14:49.380Z,16.65
2018-09-25T16:17:36.070Z,16.54
2018-09-25T16:20:23.105Z,16.44
2018-09-25T16:23:09.869Z,16.40
2018-09-25T16:25:57.293Z,16.29
2018-09-25T16:28:43.869Z,16.18
2018-09-25T16:31:30.227Z,16.12
2018-09-25T16:34:17.318Z,16.07
2018-09-25T16:37:04.062Z,15.92
2018-09-25T16:39:50.375Z,15.87
2018-09-25T16:42:37.442Z,15.77
2018-09-25T16:45:23.774Z,15.66
2018-09-25T16:48:10.560Z,15.56
2018-09-25T16:50:57.249Z,15.48
2018-09-25T16:53:44.021Z,15.42
2018-09-25T16:56:30.418Z,15.32
2018-09-25T16:59:17.132Z,15.18
2018-09-25T17:02:03.785Z,15.06
2018-09-25T17:04:50.325Z,14.91
2018-09-25T17:07:37.268Z,14.84
2018-09-25T17:10:23.895Z,14.72
2018-09-25T17:13:10.361Z,14.61
2018-09-25T17:15:57.025Z,14.54
2018-09-25T17:18:43.729Z,14.48
2018-09-25T17:21:30.509Z,14.38
2018-09-25T17:24:17.012Z,14.24
2018-09-25T17:27:03.896Z,14.09
2018-09-25T17:29:50.429Z,13.93
2018-09-25T17:32:36.958Z,13.88
2018-09-25T17:35:23.542Z,14.00
2018-09-25T17:38:10.036Z,13.67
2018-09-25T17:40:56.822Z,13.85
2018-09-25T17:43:43.595Z,13.59
2018-09-25T17:46:30.370Z,13.52
2018-09-25T17:49:17.300Z,13.37
2018-09-25T17:52:04.046Z,13.20
2018-09-25T17:54:50.645Z,13.10
2018-09-25T17:57:37.470Z,12.99
2018-09-25T18:00:25.059Z,12.88
2018-09-25T18:03:11.353Z,12.71
2018-09-25T18:05:58.202Z,12.60
2018-09-25T18:08:44.653Z,12.57
2018-09-25T18:11:30.947Z,12.54
2018-09-25T18:14:17.273Z,12.51
2018-09-25T18:17:04.010Z,12.41
2018-09-25T18:19:50.557Z,12.41
2018-09-25T18:22:37.413Z,12.40
2018-09-25T18:25:24.343Z,12.29
2018-09-25T18:28:11.203Z,12.13
2018-09-25T18:30:57.431Z,12.02
2018-09-25T18:33:44.296Z,11.94
2018-09-25T18:36:31.134Z,11.82
2018-09-25T18:39:17.320Z,11.96
2018-09-25T18:42:03.721Z,11.98
2018-09-25T18:44:50.713Z,12.00
2018-09-25T18:47:37.081Z,11.64
2018-09-25T18:50:23.401Z,11.51
2018-09-25T18:53:11.702Z,11.46
2018-09-25T18:55:58.348Z,11.42
2018-09-25T18:58:45.340Z,11.58
2018-09-25T19:01:32.394Z,11.26
2018-09-25T19:04:18.644Z,11.09
2018-09-25T19:07:05.483Z,11.06
2018-09-25T19:09:52.482Z,11.05
2018-09-25T19:12:39.369Z,11.06
2018-09-25T19:15:26.025Z,10.97
2018-09-25T19:18:12.853Z,10.87
2018-09-25T19:20:59.322Z,10.75
2018-09-25T19:23:46.156Z,10.70
2018-09-25T19:26:32.844Z,10.58
2018-09-25T19:29:19.407Z,10.52
2018-09-25T19:32:05.631Z,10.47
2018-09-25T19:34:51.958Z,10.47
2018-09-25T19:37:38.678Z,10.42
2018-09-25T19:40:25.181Z,10.34
2018-09-25T19:43:12.029Z,10.22
2018-09-25T19:45:58.600Z,10.16
2018-09-25T19:48:45.457Z,10.13
2018-09-25T19:51:31.872Z,10.12
2018-09-25T19:54:18.814Z,10.03
2018-09-25T19:57:05.711Z,9.93
2018-09-25T19:59:52.462Z,9.92
2018-09-25T20:02:39.313Z,9.86
2018-09-25T20:05:25.996Z,10.21
2018-09-25T20:08:12.308Z,9.98
2018-09-25T20:10:59.016Z,9.94
2018-09-25T20:13:45.551Z,9.88
2018-09-25T20:16:32.301Z,9.82
2018-09-25T20:19:18.782Z,9.83
2018-09-25T20:22:05.547Z,9.84
2018-09-25T20:24:52.195Z,9.76
2018-09-25T20:27:38.701Z,10.02
2018-09-25T20:30:25.361Z,9.79
2018-09-25T20:33:11.851Z,9.73
2018-09-25T20:35:58.541Z,9.65
2018-09-25T20:38:45.208Z,9.60
2018-09-25T20:41:31.857Z,9.51
2018-09-25T20:44:18.846Z,9.42
2018-09-25T20:47:05.353Z,9.33
2018-09-25T20:49:52.061Z,9.25
2018-09-25T20:52:38.799Z,9.25
2018-09-25T20:55:25.567Z,9.13
2018-09-25T20:58:11.924Z,9.09
2018-09-25T21:00:58.266Z,9.07
2018-09-25T21:03:45.394Z,9.07
2018-09-25T21:06:31.681Z,9.05
2018-09-25T21:09:18.070Z,9.02
2018-09-25T21:12:04.615Z,9.03
2018-09-25T21:14:51.836Z,9.06
2018-09-25T21:17:38.586Z,9.12
2018-09-25T21:20:25.637Z,9.18
2018-09-25T21:23:12.399Z,9.41
2018-09-25T21:25:59.170Z,9.22
2018-09-25T21:28:46.172Z,9.19
2018-09-25T21:31:32.717Z,9.15
2018-09-25T21:34:19.193Z,9.17
2018-09-25T21:37:06.105Z,9.14
2018-09-25T21:39:52.610Z,9.12
2018-09-25T21:42:39.092Z,9.03
2018-09-25T21:45:25.988Z,9.00
2018-09-25T21:48:12.408Z,8.99
2018-09-25T21:50:59.172Z,9.02
2018-09-25T21:53:45.652Z,8.96
2018-09-25T21:56:31.911Z,9.18
2018-09-25T21:59:18.557Z,9.00
2018-09-25T22:02:04.891Z,9.03
2018-09-25T22:04:51.704Z,8.95
2018-09-25T22:07:38.472Z,8.86
2018-09-25T22:10:25.095Z,8.79
2018-09-25T22:13:12.015Z,8.79
2018-09-25T22:15:58.559Z,8.76
2018-09-25T22:18:45.274Z,8.70
2018-09-25T22:21:32.120Z,8.62
2018-09-25T22:24:18.634Z,8.95
2018-09-25T22:27:05.475Z,8.68
2018-09-25T22:29:51.975Z,8.65
2018-09-25T22:32:38.739Z,8.54
2018-09-25T22:35:25.154Z,8.56
2018-09-25T22:38:12.065Z,8.50
2018-09-25T22:40:58.774Z,8.55
2018-09-25T22:43:45.241Z,8.53
2018-09-25T22:46:31.987Z,8.46
2018-09-25T22:49:18.700Z,8.49
2018-09-25T22:52:05.529Z,8.54
2018-09-25T22:54:52.497Z,8.50
2018-09-25T22:57:38.824Z,8.39
2018-09-25T23:00:25.168Z,8.33
2018-09-25T23:03:12.136Z,8.22
2018-09-25T23:05:58.821Z,8.53
2018-09-25T23:08:45.373Z,8.62
2018-09-25T23:11:32.356Z,8.25
2018-09-25T23:14:19.102Z,8.14
2018-09-25T23:17:05.594Z,8.20
2018-09-25T23:19:52.363Z,8.25
2018-09-25T23:22:39.173Z,8.24
2018-09-25T23:25:26.078Z,8.17
2018-09-25T23:28:12.522Z,8.10
2018-09-25T23:30:59.214Z,8.07
2018-09-25T23:33:46.063Z,8.04
2018-09-25T23:36:32.627Z,8.04
2018-09-25T23:39:19.558Z,7.99
2018-09-25T23:42:07.714Z,7.90
2018-09-25T23:44:50.528Z,7.88
2018-09-25T23:47:27.394Z,7.91
2018-09-25T23:49:59.562Z,7.93
2018-09-25T23:52:47.515Z,8.00
2018-09-25T23:55:24.380Z,7.99
2018-09-25T23:57:58.187Z,7.89
